sensor_id;sensor_type;location;lat;lon;timestamp;P1;durP1;ratioP1;P2;durP2;ratioP2
15669;SDS011;18524;45.190;5.732;2023-07-29T00:04:42;7.10;;;6.40;;
15669;SDS011;18524;45.190;5.732;2023-07-29T00:09:33;7.03;;;6.33;;
15669;SDS011;18524;45.190;5.732;2023-07-29T00:14:23;6.50;;;6.00;;
15669;SDS011;18524;45.190;5.732;2023-07-29T00:19:13;6.77;;;6.07;;
15669;SDS011;18524;45.190;5.732;2023-07-29T00:24:04;6.13;;;5.63;;
15669;SDS011;18524;45.190;5.732;2023-07-29T00:28:55;5.60;;;5.10;;
15669;SDS011;18524;45.190;5.732;2023-07-29T00:33:46;5.80;;;5.30;;
15669;SDS011;18524;45.190;5.732;2023-07-29T00:38:36;6.50;;;5.27;;
15669;SDS011;18524;45.190;5.732;2023-07-29T00:43:26;6.23;;;5.63;;
15669;SDS011;18524;45.190;5.732;2023-07-29T00:48:17;6.27;;;5.73;;
15669;SDS011;18524;45.190;5.732;2023-07-29T00:53:07;6.80;;;6.10;;
15669;SDS011;18524;45.190;5.732;2023-07-29T00:57:58;6.13;;;5.53;;
15669;SDS011;18524;45.190;5.732;2023-07-29T01:02:48;6.63;;;6.10;;
15669;SDS011;18524;45.190;5.732;2023-07-29T01:07:55;6.93;;;6.33;;
15669;SDS011;18524;45.190;5.732;2023-07-29T01:13:19;6.33;;;5.73;;
15669;SDS011;18524;45.190;5.732;2023-07-29T01:18:21;6.77;;;6.17;;
15669;SDS011;18524;45.190;5.732;2023-07-29T01:23:13;6.97;;;6.27;;
15669;SDS011;18524;45.190;5.732;2023-07-29T01:28:03;6.53;;;5.83;;
15669;SDS011;18524;45.190;5.732;2023-07-29T01:38:19;6.43;;;5.83;;
15669;SDS011;18524;45.190;5.732;2023-07-29T01:43:14;6.90;;;6.10;;
15669;SDS011;18524;45.190;5.732;2023-07-29T01:48:05;6.80;;;6.20;;
15669;SDS011;18524;45.190;5.732;2023-07-29T01:52:56;6.73;;;6.13;;
15669;SDS011;18524;45.190;5.732;2023-07-29T01:57:46;6.87;;;6.17;;
15669;SDS011;18524;45.190;5.732;2023-07-29T02:02:37;6.67;;;6.07;;
15669;SDS011;18524;45.190;5.732;2023-07-29T02:07:27;7.00;;;6.30;;
15669;SDS011;18524;45.190;5.732;2023-07-29T02:12:18;6.50;;;5.87;;
15669;SDS011;18524;45.190;5.732;2023-07-29T02:17:08;6.17;;;5.67;;
15669;SDS011;18524;45.190;5.732;2023-07-29T02:21:59;6.20;;;5.67;;
15669;SDS011;18524;45.190;5.732;2023-07-29T02:26:49;6.67;;;6.00;;
15669;SDS011;18524;45.190;5.732;2023-07-29T02:31:39;5.87;;;5.37;;
15669;SDS011;18524;45.190;5.732;2023-07-29T02:36:30;5.97;;;5.47;;
15669;SDS011;18524;45.190;5.732;2023-07-29T02:41:20;6.37;;;5.77;;
15669;SDS011;18524;45.190;5.732;2023-07-29T02:46:10;6.40;;;5.90;;
15669;SDS011;18524;45.190;5.732;2023-07-29T02:51:01;6.30;;;5.77;;
15669;SDS011;18524;45.190;5.732;2023-07-29T02:55:51;6.67;;;6.07;;
15669;SDS011;18524;45.190;5.732;2023-07-29T03:00:41;6.57;;;6.03;;
15669;SDS011;18524;45.190;5.732;2023-07-29T03:05:33;6.53;;;6.03;;
15669;SDS011;18524;45.190;5.732;2023-07-29T03:10:23;6.77;;;6.07;;
15669;SDS011;18524;45.190;5.732;2023-07-29T03:15:14;6.67;;;6.03;;
15669;SDS011;18524;45.190;5.732;2023-07-29T03:20:04;6.63;;;6.03;;
15669;SDS011;18524;45.190;5.732;2023-07-29T03:24:55;6.43;;;5.90;;
15669;SDS011;18524;45.190;5.732;2023-07-29T03:29:46;6.77;;;6.17;;
15669;SDS011;18524;45.190;5.732;2023-07-29T03:34:36;7.13;;;6.37;;
15669;SDS011;18524;45.190;5.732;2023-07-29T03:39:26;6.73;;;5.93;;
15669;SDS011;18524;45.190;5.732;2023-07-29T03:44:17;6.80;;;6.20;;
15669;SDS011;18524;45.190;5.732;2023-07-29T03:49:08;6.40;;;5.80;;
15669;SDS011;18524;45.190;5.732;2023-07-29T03:53:58;6.30;;;5.70;;
15669;SDS011;18524;45.190;5.732;2023-07-29T03:58:49;6.83;;;6.13;;
15669;SDS011;18524;45.190;5.732;2023-07-29T04:03:39;7.47;;;6.70;;
15669;SDS011;18524;45.190;5.732;2023-07-29T04:08:29;7.17;;;6.53;;
15669;SDS011;18524;45.190;5.732;2023-07-29T04:13:20;12.20;;;11.23;;
15669;SDS011;18524;45.190;5.732;2023-07-29T04:18:10;9.90;;;8.90;;
15669;SDS011;18524;45.190;5.732;2023-07-29T04:23:01;9.47;;;8.53;;
15669;SDS011;18524;45.190;5.732;2023-07-29T04:27:51;7.97;;;7.17;;
15669;SDS011;18524;45.190;5.732;2023-07-29T04:32:41;8.23;;;6.83;;
15669;SDS011;18524;45.190;5.732;2023-07-29T04:37:32;7.83;;;6.90;;
15669;SDS011;18524;45.190;5.732;2023-07-29T04:42:22;9.30;;;8.30;;
15669;SDS011;18524;45.190;5.732;2023-07-29T04:47:13;11.07;;;9.87;;
15669;SDS011;18524;45.190;5.732;2023-07-29T04:52:03;9.53;;;8.70;;
15669;SDS011;18524;45.190;5.732;2023-07-29T04:56:53;8.23;;;7.30;;
15669;SDS011;18524;45.190;5.732;2023-07-29T05:01:44;7.77;;;7.00;;
15669;SDS011;18524;45.190;5.732;2023-07-29T05:06:34;7.80;;;7.20;;
15669;SDS011;18524;45.190;5.732;2023-07-29T05:11:25;8.80;;;7.80;;
15669;SDS011;18524;45.190;5.732;2023-07-29T05:16:15;9.07;;;8.17;;
15669;SDS011;18524;45.190;5.732;2023-07-29T05:21:05;9.43;;;8.53;;
15669;SDS011;18524;45.190;5.732;2023-07-29T05:25:57;10.37;;;8.17;;
15669;SDS011;18524;45.190;5.732;2023-07-29T05:30:47;8.10;;;7.30;;
15669;SDS011;18524;45.190;5.732;2023-07-29T05:35:38;8.20;;;7.43;;
15669;SDS011;18524;45.190;5.732;2023-07-29T05:40:28;9.67;;;8.43;;
15669;SDS011;18524;45.190;5.732;2023-07-29T05:45:18;9.27;;;8.43;;
15669;SDS011;18524;45.190;5.732;2023-07-29T05:50:09;7.30;;;6.60;;
15669;SDS011;18524;45.190;5.732;2023-07-29T05:54:59;6.57;;;5.97;;
15669;SDS011;18524;45.190;5.732;2023-07-29T05:59:50;6.77;;;6.17;;
15669;SDS011;18524;45.190;5.732;2023-07-29T06:04:40;7.47;;;6.77;;
15669;SDS011;18524;45.190;5.732;2023-07-29T06:09:31;8.33;;;7.63;;
15669;SDS011;18524;45.190;5.732;2023-07-29T06:14:21;8.43;;;7.57;;
15669;SDS011;18524;45.190;5.732;2023-07-29T06:19:11;8.80;;;7.50;;
15669;SDS011;18524;45.190;5.732;2023-07-29T06:24:03;8.13;;;7.33;;
15669;SDS011;18524;45.190;5.732;2023-07-29T06:28:53;8.13;;;7.40;;
15669;SDS011;18524;45.190;5.732;2023-07-29T06:33:44;7.57;;;6.77;;
15669;SDS011;18524;45.190;5.732;2023-07-29T06:38:34;8.10;;;7.33;;
15669;SDS011;18524;45.190;5.732;2023-07-29T06:43:24;8.60;;;7.77;;
15669;SDS011;18524;45.190;5.732;2023-07-29T06:48:15;8.37;;;7.53;;
15669;SDS011;18524;45.190;5.732;2023-07-29T06:53:05;7.67;;;6.80;;
15669;SDS011;18524;45.190;5.732;2023-07-29T06:57:56;7.63;;;6.73;;
15669;SDS011;18524;45.190;5.732;2023-07-29T07:02:46;7.70;;;6.90;;
15669;SDS011;18524;45.190;5.732;2023-07-29T07:07:37;7.23;;;6.47;;
15669;SDS011;18524;45.190;5.732;2023-07-29T07:12:27;6.90;;;6.30;;
15669;SDS011;18524;45.190;5.732;2023-07-29T07:17:18;7.27;;;6.67;;
15669;SDS011;18524;45.190;5.732;2023-07-29T07:22:08;7.03;;;6.43;;
15669;SDS011;18524;45.190;5.732;2023-07-29T07:26:58;7.33;;;6.47;;
15669;SDS011;18524;45.190;5.732;2023-07-29T07:31:50;7.40;;;6.80;;
15669;SDS011;18524;45.190;5.732;2023-07-29T07:36:44;7.37;;;6.67;;
15669;SDS011;18524;45.190;5.732;2023-07-29T07:41:35;7.03;;;6.43;;
15669;SDS011;18524;45.190;5.732;2023-07-29T07:46:25;6.73;;;6.13;;
15669;SDS011;18524;45.190;5.732;2023-07-29T07:51:15;7.83;;;7.00;;
15669;SDS011;18524;45.190;5.732;2023-07-29T07:56:06;8.23;;;7.07;;
15669;SDS011;18524;45.190;5.732;2023-07-29T08:01:06;7.33;;;6.73;;
15669;SDS011;18524;45.190;5.732;2023-07-29T08:05:58;8.10;;;6.63;;
15669;SDS011;18524;45.190;5.732;2023-07-29T08:10:48;7.03;;;6.50;;
15669;SDS011;18524;45.190;5.732;2023-07-29T08:15:39;7.17;;;6.40;;
15669;SDS011;18524;45.190;5.732;2023-07-29T08:20:31;8.23;;;6.57;;
15669;SDS011;18524;45.190;5.732;2023-07-29T08:25:22;7.43;;;6.70;;
15669;SDS011;18524;45.190;5.732;2023-07-29T08:30:13;7.67;;;6.93;;
15669;SDS011;18524;45.190;5.732;2023-07-29T08:35:04;7.27;;;6.77;;
15669;SDS011;18524;45.190;5.732;2023-07-29T08:39:55;7.00;;;6.40;;
15669;SDS011;18524;45.190;5.732;2023-07-29T08:44:45;7.50;;;6.83;;
15669;SDS011;18524;45.190;5.732;2023-07-29T08:49:39;8.10;;;7.50;;
15669;SDS011;18524;45.190;5.732;2023-07-29T08:54:30;7.33;;;6.83;;
15669;SDS011;18524;45.190;5.732;2023-07-29T08:59:21;7.13;;;6.50;;
15669;SDS011;18524;45.190;5.732;2023-07-29T09:04:11;7.43;;;6.73;;
15669;SDS011;18524;45.190;5.732;2023-07-29T09:09:02;7.50;;;6.90;;
15669;SDS011;18524;45.190;5.732;2023-07-29T09:13:52;8.20;;;7.47;;
15669;SDS011;18524;45.190;5.732;2023-07-29T09:18:43;7.60;;;7.00;;
15669;SDS011;18524;45.190;5.732;2023-07-29T09:23:40;8.40;;;7.60;;
15669;SDS011;18524;45.190;5.732;2023-07-29T09:28:35;8.17;;;7.50;;
15669;SDS011;18524;45.190;5.732;2023-07-29T09:33:26;9.10;;;8.30;;
15669;SDS011;18524;45.190;5.732;2023-07-29T09:38:17;9.20;;;8.50;;
15669;SDS011;18524;45.190;5.732;2023-07-29T09:43:09;10.07;;;9.23;;
15669;SDS011;18524;45.190;5.732;2023-07-29T09:47:59;9.40;;;8.60;;
15669;SDS011;18524;45.190;5.732;2023-07-29T09:52:50;9.63;;;8.83;;
15669;SDS011;18524;45.190;5.732;2023-07-29T09:57:42;9.30;;;8.60;;
15669;SDS011;18524;45.190;5.732;2023-07-29T10:02:33;9.07;;;8.17;;
15669;SDS011;18524;45.190;5.732;2023-07-29T10:07:23;9.10;;;8.40;;
15669;SDS011;18524;45.190;5.732;2023-07-29T10:12:14;8.57;;;7.87;;
15669;SDS011;18524;45.190;5.732;2023-07-29T10:17:05;7.20;;;6.60;;
15669;SDS011;18524;45.190;5.732;2023-07-29T10:21:56;6.27;;;5.67;;
15669;SDS011;18524;45.190;5.732;2023-07-29T10:26:49;5.87;;;5.37;;
15669;SDS011;18524;45.190;5.732;2023-07-29T10:31:40;5.60;;;5.10;;
15669;SDS011;18524;45.190;5.732;2023-07-29T10:36:33;5.37;;;4.97;;
15669;SDS011;18524;45.190;5.732;2023-07-29T10:41:23;5.40;;;5.00;;
15669;SDS011;18524;45.190;5.732;2023-07-29T10:46:50;5.70;;;5.20;;
15669;SDS011;18524;45.190;5.732;2023-07-29T10:51:40;4.90;;;4.60;;
15669;SDS011;18524;45.190;5.732;2023-07-29T10:56:31;5.40;;;5.00;;
15669;SDS011;18524;45.190;5.732;2023-07-29T11:01:29;5.67;;;5.27;;
15669;SDS011;18524;45.190;5.732;2023-07-29T11:06:22;5.17;;;4.80;;
15669;SDS011;18524;45.190;5.732;2023-07-29T11:11:12;4.97;;;4.57;;
15669;SDS011;18524;45.190;5.732;2023-07-29T11:16:03;5.30;;;4.90;;
15669;SDS011;18524;45.190;5.732;2023-07-29T11:20:55;6.07;;;5.50;;
15669;SDS011;18524;45.190;5.732;2023-07-29T11:25:46;7.50;;;6.57;;
15669;SDS011;18524;45.190;5.732;2023-07-29T11:30:38;5.73;;;5.23;;
15669;SDS011;18524;45.190;5.732;2023-07-29T11:35:29;5.83;;;5.33;;
15669;SDS011;18524;45.190;5.732;2023-07-29T11:40:20;7.20;;;6.60;;
15669;SDS011;18524;45.190;5.732;2023-07-29T11:45:12;7.53;;;6.93;;
15669;SDS011;18524;45.190;5.732;2023-07-29T11:50:04;8.60;;;7.80;;
15669;SDS011;18524;45.190;5.732;2023-07-29T11:54:56;7.93;;;7.23;;
15669;SDS011;18524;45.190;5.732;2023-07-29T11:59:47;7.97;;;7.37;;
15669;SDS011;18524;45.190;5.732;2023-07-29T12:04:37;7.63;;;6.93;;
15669;SDS011;18524;45.190;5.732;2023-07-29T12:09:29;8.30;;;7.60;;
15669;SDS011;18524;45.190;5.732;2023-07-29T12:14:20;7.23;;;6.63;;
15669;SDS011;18524;45.190;5.732;2023-07-29T12:19:14;7.30;;;6.70;;
15669;SDS011;18524;45.190;5.732;2023-07-29T12:24:05;7.13;;;6.63;;
15669;SDS011;18524;45.190;5.732;2023-07-29T12:28:55;6.70;;;6.10;;
15669;SDS011;18524;45.190;5.732;2023-07-29T12:33:49;6.53;;;5.93;;
15669;SDS011;18524;45.190;5.732;2023-07-29T12:38:46;6.60;;;6.00;;
15669;SDS011;18524;45.190;5.732;2023-07-29T12:43:36;6.70;;;6.00;;
15669;SDS011;18524;45.190;5.732;2023-07-29T12:48:27;6.20;;;5.70;;
15669;SDS011;18524;45.190;5.732;2023-07-29T12:53:18;6.77;;;5.67;;
15669;SDS011;18524;45.190;5.732;2023-07-29T12:58:08;5.93;;;5.53;;
15669;SDS011;18524;45.190;5.732;2023-07-29T13:02:58;6.57;;;6.07;;
15669;SDS011;18524;45.190;5.732;2023-07-29T13:07:49;5.83;;;5.43;;
15669;SDS011;18524;45.190;5.732;2023-07-29T13:12:39;5.97;;;5.50;;
15669;SDS011;18524;45.190;5.732;2023-07-29T13:17:30;6.10;;;5.60;;
15669;SDS011;18524;45.190;5.732;2023-07-29T13:22:20;5.90;;;5.40;;
15669;SDS011;18524;45.190;5.732;2023-07-29T13:27:11;5.93;;;5.40;;
15669;SDS011;18524;45.190;5.732;2023-07-29T13:32:01;6.20;;;5.60;;
15669;SDS011;18524;45.190;5.732;2023-07-29T13:36:52;5.80;;;5.27;;
15669;SDS011;18524;45.190;5.732;2023-07-29T13:41:43;6.37;;;5.37;;
15669;SDS011;18524;45.190;5.732;2023-07-29T13:46:33;5.67;;;5.17;;
15669;SDS011;18524;45.190;5.732;2023-07-29T13:51:23;5.77;;;5.23;;
15669;SDS011;18524;45.190;5.732;2023-07-29T13:56:14;6.17;;;5.67;;
15669;SDS011;18524;45.190;5.732;2023-07-29T14:01:04;6.03;;;5.43;;
15669;SDS011;18524;45.190;5.732;2023-07-29T14:05:54;5.47;;;5.07;;
15669;SDS011;18524;45.190;5.732;2023-07-29T14:10:45;5.70;;;5.20;;
15669;SDS011;18524;45.190;5.732;2023-07-29T14:15:36;5.87;;;5.37;;
15669;SDS011;18524;45.190;5.732;2023-07-29T14:20:26;5.37;;;4.60;;
15669;SDS011;18524;45.190;5.732;2023-07-29T14:25:17;6.10;;;4.93;;
15669;SDS011;18524;45.190;5.732;2023-07-29T14:30:07;5.20;;;4.80;;
15669;SDS011;18524;45.190;5.732;2023-07-29T14:34:58;4.70;;;4.27;;
15669;SDS011;18524;45.190;5.732;2023-07-29T14:39:53;4.87;;;4.47;;
15669;SDS011;18524;45.190;5.732;2023-07-29T14:44:43;5.40;;;4.90;;
15669;SDS011;18524;45.190;5.732;2023-07-29T14:49:34;5.17;;;4.77;;
15669;SDS011;18524;45.190;5.732;2023-07-29T14:54:24;5.07;;;4.67;;
15669;SDS011;18524;45.190;5.732;2023-07-29T14:59:14;5.03;;;4.73;;
15669;SDS011;18524;45.190;5.732;2023-07-29T15:04:05;5.43;;;4.80;;
15669;SDS011;18524;45.190;5.732;2023-07-29T15:08:55;5.20;;;4.80;;
15669;SDS011;18524;45.190;5.732;2023-07-29T15:13:45;5.57;;;5.07;;
15669;SDS011;18524;45.190;5.732;2023-07-29T15:18:36;5.20;;;4.80;;
15669;SDS011;18524;45.190;5.732;2023-07-29T15:23:27;5.00;;;4.53;;
15669;SDS011;18524;45.190;5.732;2023-07-29T15:28:17;5.97;;;5.07;;
15669;SDS011;18524;45.190;5.732;2023-07-29T15:33:07;5.73;;;4.77;;
15669;SDS011;18524;45.190;5.732;2023-07-29T15:37:58;5.30;;;4.90;;
15669;SDS011;18524;45.190;5.732;2023-07-29T15:42:48;10.63;;;8.00;;
15669;SDS011;18524;45.190;5.732;2023-07-29T15:47:38;5.40;;;5.00;;
15669;SDS011;18524;45.190;5.732;2023-07-29T15:52:29;6.83;;;5.60;;
15669;SDS011;18524;45.190;5.732;2023-07-29T15:57:19;5.30;;;4.90;;
15669;SDS011;18524;45.190;5.732;2023-07-29T16:02:10;5.13;;;4.73;;
15669;SDS011;18524;45.190;5.732;2023-07-29T16:07:00;5.70;;;5.20;;
15669;SDS011;18524;45.190;5.732;2023-07-29T16:11:50;5.40;;;4.90;;
15669;SDS011;18524;45.190;5.732;2023-07-29T16:16:41;6.23;;;5.63;;
15669;SDS011;18524;45.190;5.732;2023-07-29T16:21:32;6.23;;;5.63;;
15669;SDS011;18524;45.190;5.732;2023-07-29T16:26:22;5.10;;;4.70;;
15669;SDS011;18524;45.190;5.732;2023-07-29T16:31:14;4.83;;;4.43;;
15669;SDS011;18524;45.190;5.732;2023-07-29T16:36:04;4.63;;;4.33;;
15669;SDS011;18524;45.190;5.732;2023-07-29T16:40:55;5.20;;;4.67;;
15669;SDS011;18524;45.190;5.732;2023-07-29T16:45:45;5.97;;;4.83;;
15669;SDS011;18524;45.190;5.732;2023-07-29T16:50:36;4.93;;;4.43;;
15669;SDS011;18524;45.190;5.732;2023-07-29T16:55:27;5.33;;;4.90;;
15669;SDS011;18524;45.190;5.732;2023-07-29T17:00:17;4.83;;;4.30;;
15669;SDS011;18524;45.190;5.732;2023-07-29T17:05:08;6.03;;;4.07;;
15669;SDS011;18524;45.190;5.732;2023-07-29T17:09:58;4.47;;;4.17;;
15669;SDS011;18524;45.190;5.732;2023-07-29T17:14:49;3.87;;;3.57;;
15669;SDS011;18524;45.190;5.732;2023-07-29T17:19:39;6.33;;;4.60;;
15669;SDS011;18524;45.190;5.732;2023-07-29T17:24:30;4.23;;;3.77;;
15669;SDS011;18524;45.190;5.732;2023-07-29T17:29:20;4.60;;;4.20;;
15669;SDS011;18524;45.190;5.732;2023-07-29T17:34:11;9.47;;;7.60;;
15669;SDS011;18524;45.190;5.732;2023-07-29T17:39:01;5.60;;;5.07;;
15669;SDS011;18524;45.190;5.732;2023-07-29T17:43:52;4.73;;;4.33;;
15669;SDS011;18524;45.190;5.732;2023-07-29T17:48:43;6.23;;;5.60;;
15669;SDS011;18524;45.190;5.732;2023-07-29T17:53:34;7.23;;;6.00;;
15669;SDS011;18524;45.190;5.732;2023-07-29T17:58:24;7.30;;;6.60;;
15669;SDS011;18524;45.190;5.732;2023-07-29T18:03:14;7.43;;;6.47;;
15669;SDS011;18524;45.190;5.732;2023-07-29T18:08:05;7.07;;;6.47;;
15669;SDS011;18524;45.190;5.732;2023-07-29T18:12:55;7.80;;;7.00;;
15669;SDS011;18524;45.190;5.732;2023-07-29T18:17:45;9.57;;;6.97;;
15669;SDS011;18524;45.190;5.732;2023-07-29T18:22:36;7.50;;;6.87;;
15669;SDS011;18524;45.190;5.732;2023-07-29T18:27:26;9.07;;;8.17;;
15669;SDS011;18524;45.190;5.732;2023-07-29T18:32:17;11.20;;;9.27;;
15669;SDS011;18524;45.190;5.732;2023-07-29T18:37:07;8.97;;;8.00;;
15669;SDS011;18524;45.190;5.732;2023-07-29T18:41:58;7.90;;;7.20;;
15669;SDS011;18524;45.190;5.732;2023-07-29T18:46:49;7.97;;;7.03;;
15669;SDS011;18524;45.190;5.732;2023-07-29T18:51:39;7.40;;;6.80;;
15669;SDS011;18524;45.190;5.732;2023-07-29T18:56:30;8.97;;;7.90;;
15669;SDS011;18524;45.190;5.732;2023-07-29T19:01:20;9.00;;;8.10;;
15669;SDS011;18524;45.190;5.732;2023-07-29T19:06:11;10.60;;;9.50;;
15669;SDS011;18524;45.190;5.732;2023-07-29T19:11:02;11.33;;;10.03;;
15669;SDS011;18524;45.190;5.732;2023-07-29T19:15:52;10.60;;;9.60;;
15669;SDS011;18524;45.190;5.732;2023-07-29T19:20:52;8.93;;;8.13;;
15669;SDS011;18524;45.190;5.732;2023-07-29T19:25:45;9.20;;;8.40;;
15669;SDS011;18524;45.190;5.732;2023-07-29T19:30:39;9.03;;;8.20;;
15669;SDS011;18524;45.190;5.732;2023-07-29T19:35:29;8.57;;;7.77;;
15669;SDS011;18524;45.190;5.732;2023-07-29T19:40:20;9.00;;;8.10;;
15669;SDS011;18524;45.190;5.732;2023-07-29T19:45:10;12.97;;;11.67;;
15669;SDS011;18524;45.190;5.732;2023-07-29T19:50:01;11.43;;;9.63;;
15669;SDS011;18524;45.190;5.732;2023-07-29T19:54:51;9.43;;;8.43;;
15669;SDS011;18524;45.190;5.732;2023-07-29T19:59:42;9.43;;;8.53;;
15669;SDS011;18524;45.190;5.732;2023-07-29T20:04:32;9.80;;;8.00;;
15669;SDS011;18524;45.190;5.732;2023-07-29T20:09:22;10.57;;;8.30;;
15669;SDS011;18524;45.190;5.732;2023-07-29T20:14:13;8.70;;;7.73;;
15669;SDS011;18524;45.190;5.732;2023-07-29T20:19:03;7.80;;;7.00;;
15669;SDS011;18524;45.190;5.732;2023-07-29T20:23:53;6.43;;;5.83;;
15669;SDS011;18524;45.190;5.732;2023-07-29T20:28:44;5.70;;;5.10;;
15669;SDS011;18524;45.190;5.732;2023-07-29T20:33:36;5.83;;;5.23;;
15669;SDS011;18524;45.190;5.732;2023-07-29T20:38:26;5.60;;;5.10;;
15669;SDS011;18524;45.190;5.732;2023-07-29T20:43:16;6.40;;;5.80;;
15669;SDS011;18524;45.190;5.732;2023-07-29T20:48:07;7.53;;;5.80;;
15669;SDS011;18524;45.190;5.732;2023-07-29T20:52:58;4.67;;;4.27;;
15669;SDS011;18524;45.190;5.732;2023-07-29T20:57:48;6.43;;;4.50;;
15669;SDS011;18524;45.190;5.732;2023-07-29T21:02:38;5.13;;;4.67;;
15669;SDS011;18524;45.190;5.732;2023-07-29T21:07:29;5.30;;;4.87;;
15669;SDS011;18524;45.190;5.732;2023-07-29T21:12:19;5.07;;;4.60;;
15669;SDS011;18524;45.190;5.732;2023-07-29T21:17:09;5.70;;;5.10;;
15669;SDS011;18524;45.190;5.732;2023-07-29T21:22:00;5.33;;;4.83;;
15669;SDS011;18524;45.190;5.732;2023-07-29T21:26:50;5.40;;;4.90;;
15669;SDS011;18524;45.190;5.732;2023-07-29T21:31:40;5.60;;;5.13;;
15669;SDS011;18524;45.190;5.732;2023-07-29T21:36:31;5.53;;;5.03;;
15669;SDS011;18524;45.190;5.732;2023-07-29T21:41:21;3.63;;;3.33;;
15669;SDS011;18524;45.190;5.732;2023-07-29T21:46:11;3.90;;;3.30;;
15669;SDS011;18524;45.190;5.732;2023-07-29T21:51:02;3.33;;;3.03;;
15669;SDS011;18524;45.190;5.732;2023-07-29T21:55:52;3.40;;;3.10;;
15669;SDS011;18524;45.190;5.732;2023-07-29T22:00:44;3.60;;;3.07;;
15669;SDS011;18524;45.190;5.732;2023-07-29T22:05:34;3.20;;;2.60;;
15669;SDS011;18524;45.190;5.732;2023-07-29T22:10:24;3.10;;;2.80;;
15669;SDS011;18524;45.190;5.732;2023-07-29T22:15:15;3.03;;;2.60;;
15669;SDS011;18524;45.190;5.732;2023-07-29T22:20:06;3.20;;;2.90;;
15669;SDS011;18524;45.190;5.732;2023-07-29T22:24:56;3.10;;;2.87;;
15669;SDS011;18524;45.190;5.732;2023-07-29T22:29:47;3.07;;;2.80;;
15669;SDS011;18524;45.190;5.732;2023-07-29T22:34:37;2.80;;;2.60;;
15669;SDS011;18524;45.190;5.732;2023-07-29T22:39:27;3.10;;;2.80;;
15669;SDS011;18524;45.190;5.732;2023-07-29T22:44:18;3.33;;;2.77;;
15669;SDS011;18524;45.190;5.732;2023-07-29T22:49:08;3.33;;;2.83;;
15669;SDS011;18524;45.190;5.732;2023-07-29T22:53:59;3.20;;;2.90;;
15669;SDS011;18524;45.190;5.732;2023-07-29T22:58:49;3.20;;;2.90;;
15669;SDS011;18524;45.190;5.732;2023-07-29T23:03:39;3.20;;;2.93;;
15669;SDS011;18524;45.190;5.732;2023-07-29T23:08:30;4.03;;;3.63;;
15669;SDS011;18524;45.190;5.732;2023-07-29T23:13:20;3.90;;;3.50;;
15669;SDS011;18524;45.190;5.732;2023-07-29T23:18:10;3.53;;;3.23;;
15669;SDS011;18524;45.190;5.732;2023-07-29T23:23:01;4.00;;;3.30;;
15669;SDS011;18524;45.190;5.732;2023-07-29T23:27:53;3.63;;;3.33;;
15669;SDS011;18524;45.190;5.732;2023-07-29T23:32:43;3.87;;;3.57;;
15669;SDS011;18524;45.190;5.732;2023-07-29T23:37:34;4.37;;;3.97;;
15669;SDS011;18524;45.190;5.732;2023-07-29T23:42:24;4.33;;;3.93;;
15669;SDS011;18524;45.190;5.732;2023-07-29T23:47:15;4.77;;;4.10;;
15669;SDS011;18524;45.190;5.732;2023-07-29T23:52:05;4.37;;;3.90;;
15669;SDS011;18524;45.190;5.732;2023-07-29T23:56:56;4.37;;;3.97;;
